Thor Heyerdahl — DKQH — position and weather

sailwx.info

Track history (hours):
 
Tides and Currents Weather Stations Pressure Air Temp Water Temp Dewpoint Dewpoint Depression Visibility Wind Speed Wind Dir Waves Ship Positions

Thor Heyerdahl

Last reported at 2019-Jun-16 01:00 UTC. Time now 2019-Jun-16 01:05 UTC.
Position N 54°47' E 010°47'.

beam 6.5 m; draft 2.2 m.

Type: Sailing vessel. MMSI: 211232340.

Date/timePositionNaut miles runAvg speedWind from/ knotsBaromVisibWave heightAir tempDewpointWater temp
2019-Jun-16 01:00N 54°47' E 010°47'3 5.4
2019-Jun-16 00:30N 54°44' E 010°45'3 5.0
2019-Jun-16 00:00N 54°42' E 010°42'2 4.9
2019-Jun-15 23:30N 54°41' E 010°39'2 5.0
2019-Jun-15 23:01N 54°39' E 010°36'3 5.6
2019-Jun-15 22:30N 54°37' E 010°33'3 5.0
2019-Jun-15 22:00N 54°35' E 010°29'3 5.5
2019-Jun-15 21:30N 54°33' E 010°26'3 6.1
2019-Jun-15 21:00N 54°31' E 010°22'2 3.1
2019-Jun-15 20:30N 54°30' E 010°20'1 2.8
2019-Jun-15 20:01N 54°29' E 010°19'2 3.9
2019-Jun-15 19:30N 54°28' E 010°16'2 3.8
2019-Jun-15 19:00N 54°26' E 010°14'1 2.6
2019-Jun-15 18:29N 54°25' E 010°13'2 4.7
2019-Jun-15 18:00N 54°23' E 010°12'2 4.8
2019-Jun-15 17:30N 54°21' E 010°10'1 1.9
2019-Jun-15 16:53N 54°20' E 010°11'0 0.0
2019-Jun-15 16:23N 54°20' E 010°11'0 0.0
2019-Jun-15 15:53N 54°20' E 010°11'0 0.0
2019-Jun-15 15:23N 54°20' E 010°11'0 0.0
2019-Jun-15 14:53N 54°20' E 010°11'0 0.0
2019-Jun-15 14:23N 54°20' E 010°11'0 0.0
2019-Jun-15 13:56N 54°20' E 010°11'0 0.0
2019-Jun-15 13:26N 54°20' E 010°11'0 0.0
2019-Jun-15 12:56N 54°20' E 010°11'0 0.0
2019-Jun-15 12:26N 54°20' E 010°11'0 0.0
2019-Jun-15 11:55N 54°20' E 010°11'0 0.0
2019-Jun-15 11:13N 54°20' E 010°11'0 0.0
2019-Jun-15 10:58N 54°20' E 010°11'0 0.0
2019-Jun-15 10:28N 54°20' E 010°11'0 0.0
2019-Jun-15 09:55N 54°20' E 010°11'0 0.0
2019-Jun-15 09:28N 54°20' E 010°11'0 0.0
2019-Jun-15 08:46N 54°20' E 010°11'0 0.0
2019-Jun-15 08:29N 54°20' E 010°11'0 0.8
2019-Jun-15 08:01N 54°20' E 010°10'1 2.0
2019-Jun-15 07:31N 54°21' E 010°10'1 2.6
2019-Jun-15 06:56N 54°22' E 010°11'0 0.0
2019-Jun-15 06:23N 54°22' E 010°11'0 0.0
2019-Jun-15 05:56N 54°22' E 010°11'0 0.1
2019-Jun-15 05:29N 54°22' E 010°11'0 0.0
2019-Jun-15 04:59N 54°22' E 010°11'0 0.0
2019-Jun-15 04:29N 54°22' E 010°11'0 0.0
2019-Jun-15 03:59N 54°22' E 010°11'0 0.0
2019-Jun-15 03:29N 54°22' E 010°11'0 0.0
2019-Jun-15 02:59N 54°22' E 010°11'0 0.0
2019-Jun-15 02:29N 54°22' E 010°11'0 0.0
2019-Jun-15 01:59N 54°22' E 010°11'0 0.0
2019-Jun-15 01:29N 54°22' E 010°11'0 0.0
2019-Jun-15 00:59N 54°22' E 010°11'0 0.0
2019-Jun-15 00:17N 54°22' E 010°11'0 0.1
2019-Jun-14 23:59N 54°22' E 010°11'0 0.0
2019-Jun-14 23:29N 54°22' E 010°11'0 0.0
2019-Jun-14 22:58N 54°22' E 010°11'0 0.0
2019-Jun-14 22:20N 54°22' E 010°11'0 0.0
2019-Jun-14 21:49N 54°22' E 010°11'0 0.0
2019-Jun-14 21:23N 54°22' E 010°11'0 0.0
2019-Jun-14 20:52N 54°22' E 010°11'0 0.0
2019-Jun-14 20:23N 54°22' E 010°11'0 0.0
2019-Jun-14 19:53N 54°22' E 010°11'0 0.0
2019-Jun-14 19:23N 54°22' E 010°11'0 0.0
2019-Jun-14 18:53N 54°22' E 010°11'0 0.0
2019-Jun-14 18:27N 54°22' E 010°11'0 0.0
2019-Jun-14 17:59N 54°22' E 010°11'0 0.0
2019-Jun-14 17:25N 54°22' E 010°11'0 0.1
2019-Jun-14 17:00N 54°22' E 010°11'0 0.1
2019-Jun-14 16:29N 54°22' E 010°11'0 0.0
2019-Jun-14 15:59N 54°22' E 010°11'0 0.1
2019-Jun-14 15:29N 54°22' E 010°11'1 2.7
2019-Jun-14 14:59N 54°24' E 010°12'1 1.2
2019-Jun-14 14:30N 54°23' E 010°11'2 5.0
2019-Jun-14 14:01N 54°26' E 010°11'1 1.2
2019-Jun-14 13:29N 54°26' E 010°11'0 0.0
2019-Jun-14 13:00N 54°26' E 010°11'0 0.0
2019-Jun-14 12:30N 54°26' E 010°11'0 0.0
2019-Jun-14 11:59N 54°26' E 010°11'0 0.0
2019-Jun-14 11:30N 54°26' E 010°11'0 0.0
2019-Jun-14 11:00N 54°26' E 010°11'0 0.0
2019-Jun-14 10:29N 54°26' E 010°11'0 0.0
2019-Jun-14 09:51N 54°26' E 010°11'0 0.0
2019-Jun-14 09:29N 54°26' E 010°11'0 0.0
2019-Jun-14 08:54N 54°26' E 010°11'0 0.0
2019-Jun-14 08:30N 54°26' E 010°11'0 0.0
2019-Jun-14 07:54N 54°26' E 010°11'0 0.0
2019-Jun-14 07:30N 54°26' E 010°11'0 0.0
2019-Jun-14 06:57N 54°26' E 010°11'0 0.0
2019-Jun-14 06:30N 54°26' E 010°11'0 0.0
2019-Jun-14 05:59N 54°26' E 010°11'0 0.0
2019-Jun-14 05:26N 54°26' E 010°11'0 0.0
2019-Jun-14 05:00N 54°26' E 010°11'0 0.0
2019-Jun-14 04:30N 54°26' E 010°11'0 0.0
2019-Jun-14 04:00N 54°26' E 010°11'0 0.1
2019-Jun-14 03:30N 54°26' E 010°11'0 0.0
2019-Jun-14 03:00N 54°26' E 010°11'0 0.0
2019-Jun-14 02:30N 54°26' E 010°11'0 0.0
2019-Jun-14 01:59N 54°26' E 010°11'0 0.0
2019-Jun-14 01:30N 54°26' E 010°11'0 0.0
2019-Jun-14 01:00N 54°26' E 010°11'0 0.0
2019-Jun-14 00:29N 54°26' E 010°11'0 0.0
2019-Jun-14 00:00N 54°26' E 010°11'0 0.0
2019-Jun-13 23:30N 54°26' E 010°11'0 0.0
2019-Jun-13 23:00N 54°26' E 010°11'0 0.1
2019-Jun-13 22:30N 54°26' E 010°11'0 0.1
2019-Jun-13 22:00N 54°26' E 010°11'0 0.1
2019-Jun-13 21:24N 54°26' E 010°11'0 0.0
2019-Jun-13 21:00N 54°26' E 010°11'0 0.0
2019-Jun-13 20:30N 54°26' E 010°11'0 0.0
2019-Jun-13 19:51N 54°26' E 010°11'0 0.0
2019-Jun-13 19:21N 54°26' E 010°11'0 0.2
2019-Jun-13 19:00N 54°26' E 010°11'1 1.6
2019-Jun-13 18:30N 54°26' E 010°12'3 5.6
2019-Jun-13 18:00N 54°28' E 010°15'3 5.9
2019-Jun-13 17:30N 54°31' E 010°18'3 5.4
2019-Jun-13 17:00N 54°33' E 010°21'3 5.9
2019-Jun-13 16:30N 54°35' E 010°24'2 3.1
2019-Jun-13 16:00N 54°36' E 010°26'0 0.1
2019-Jun-13 15:30N 54°36' E 010°26'0 0.7
2019-Jun-13 15:00N 54°36' E 010°27'2 3.6
2019-Jun-13 14:30N 54°38' E 010°29'1 2.6
2019-Jun-13 14:00N 54°39' E 010°30'0 0.7
2019-Jun-13 13:30N 54°39' E 010°31'1 1.0
2019-Jun-13 13:00N 54°39' E 010°32'1 2.3
2019-Jun-13 12:30N 54°39' E 010°34'1 2.5
2019-Jun-13 12:00N 54°40' E 010°36'2 3.6
2019-Jun-13 11:30N 54°40' E 010°38'2 4.7
2019-Jun-13 11:00N 54°42' E 010°42'2 3.6
2019-Jun-13 10:30N 54°43' E 010°44'2 4.5
2019-Jun-13 10:00N 54°45' E 010°46'2 4.0
2019-Jun-13 09:31N 54°47' E 010°46'2 3.5
2019-Jun-13 09:00N 54°48' E 010°48'2 3.1
2019-Jun-13 08:30N 54°50' E 010°49'1 2.7
2019-Jun-13 08:00N 54°51' E 010°49'1 2.8
2019-Jun-13 07:31N 54°53' E 010°50'2 3.2
2019-Jun-13 07:00N 54°54' E 010°50'2 3.8
2019-Jun-13 06:30N 54°56' E 010°51'1 2.1
2019-Jun-13 05:58N 54°57' E 010°52'0 0.1
2019-Jun-13 05:28N 54°57' E 010°52'0 0.0
2019-Jun-13 04:58N 54°57' E 010°52'0 0.0
2019-Jun-13 04:28N 54°57' E 010°52'0 0.0
2019-Jun-13 03:55N 54°57' E 010°52'0 0.0
2019-Jun-13 03:28N 54°57' E 010°52'0 0.0
2019-Jun-13 02:58N 54°57' E 010°52'0 0.0
2019-Jun-13 02:28N 54°57' E 010°52'0 0.0
2019-Jun-13 01:58N 54°57' E 010°52'0 0.0
2019-Jun-13 01:28N 54°57' E 010°52'0 0.0
2019-Jun-13 00:58N 54°57' E 010°52'0 0.0
2019-Jun-13 00:28N 54°57' E 010°52'0 0.0
2019-Jun-12 23:58N 54°57' E 010°52'0 0.0
2019-Jun-12 23:28N 54°57' E 010°52'0 0.0
2019-Jun-12 22:58N 54°57' E 010°52'0 0.0
2019-Jun-12 22:28N 54°57' E 010°52'0 0.0
2019-Jun-12 21:55N 54°57' E 010°52'0 0.0
2019-Jun-12 21:28N 54°57' E 010°52'0 0.0
2019-Jun-12 20:58N 54°57' E 010°52'0 0.0
2019-Jun-12 20:28N 54°57' E 010°52'0 0.2
2019-Jun-12 20:00N 54°57' E 010°52'1 2.7
2019-Jun-12 19:31N 54°58' E 010°53'1 1.8
2019-Jun-12 19:01N 54°59' E 010°54'1 2.0
2019-Jun-12 18:30N 54°59' E 010°56'1 2.6
2019-Jun-12 18:01N 55°00' E 010°57'1 2.9
2019-Jun-12 17:31N 55°01' E 010°58'1 1.3
2019-Jun-12 17:00N 55°02' E 010°59'1 1.6
2019-Jun-12 16:30N 55°02' E 011°01'1 1.6
2019-Jun-12 16:00N 55°03' E 011°01'1 1.6
2019-Jun-12 15:30N 55°04' E 011°01'1 1.4
2019-Jun-12 15:01N 55°04' E 011°02'1 1.9
2019-Jun-12 14:27N 55°05' E 011°02'1 2.4
2019-Jun-12 14:00N 55°06' E 011°02'3 3.1
2019-Jun-12 13:01N 55°09' E 011°03'0 3.5
2019-Jun-12 13:00N 55°09' E 011°03'3 3.2
2019-Jun-12 12:04N 55°12' E 011°05'0 4.0
2019-Jun-12 12:00N 55°12' E 011°05'1 2.0
2019-Jun-12 11:30N 55°13' E 011°05'1 2.9
2019-Jun-12 11:00N 55°14' E 011°03'1 2.3
2019-Jun-12 10:30N 55°15' E 011°01'3 3.3
2019-Jun-12 09:38N 55°16' E 010°57'1 0.8
2019-Jun-12 09:02N 55°17' E 010°57'2 1.7
2019-Jun-12 07:55N 55°18' E 010°60'0 1.2
2019-Jun-12 07:30N 55°18' E 011°00'1 1.5
2019-Jun-12 06:59N 55°19' E 011°01'1 2.2
2019-Jun-12 06:25N 55°20' E 011°01'1 2.2
2019-Jun-12 05:47N 55°21' E 011°02'1 1.9
2019-Jun-12 05:28N 55°22' E 011°02'2 2.7
2019-Jun-12 04:52N 55°23' E 010°60'7 3.9
2019-Jun-12 03:08N 55°29' E 010°54'0 2.6
2019-Jun-12 03:00N 55°29' E 010°53'3 2.7
2019-Jun-12 02:01N 55°31' E 010°50'2 2.6
2019-Jun-12 01:22N 55°31' E 010°47'0 0.0
2019-Jun-12 00:55N 55°31' E 010°47'0 0.0
2019-Jun-11 23:19N 55°32' E 010°47'0 0.0
2019-Jun-11 22:55N 55°32' E 010°47'0 0.0
2019-Jun-11 17:37N 55°32' E 010°47'10 2.3
2019-Jun-11 13:31N 55°41' E 010°46'0 5.3
2019-Jun-11 13:27N 55°41' E 010°46'17 3.0
2019-Jun-11 07:48N 55°57' E 010°58'11 4.7
2019-Jun-11 05:25N 56°06' E 011°08'2 4.8
2019-Jun-11 05:00N 56°08' E 011°10'2 4.5
2019-Jun-11 04:30N 56°10' E 011°13'2 4.7
2019-Jun-11 03:59N 56°12' E 011°15'3 5.5
2019-Jun-11 03:30N 56°14' E 011°17'3 5.4
2019-Jun-11 03:00N 56°16' E 011°20'2 4.9
2019-Jun-11 02:31N 56°18' E 011°23'3 5.6
2019-Jun-11 02:00N 56°21' E 011°25'2 4.9
2019-Jun-11 01:30N 56°23' E 011°28'2 4.2
2019-Jun-11 01:00N 56°25' E 011°29'2 3.7
2019-Jun-11 00:30N 56°26' E 011°31'2 3.4
2019-Jun-10 23:58N 56°28' E 011°32'2 3.8
2019-Jun-10 23:29N 56°30' E 011°33'2 3.4
2019-Jun-10 23:00N 56°31' E 011°34'2 3.2
2019-Jun-10 22:30N 56°32' E 011°37'2 3.0
2019-Jun-10 22:00N 56°33' E 011°39'2 3.3
2019-Jun-10 21:30N 56°34' E 011°40'2 3.3
2019-Jun-10 20:59N 56°36' E 011°42'1 3.2
2019-Jun-10 20:30N 56°37' E 011°43'2 3.8
2019-Jun-10 20:00N 56°39' E 011°44'2 4.5
2019-Jun-10 19:30N 56°41' E 011°47'2 4.6
2019-Jun-10 19:00N 56°43' E 011°49'2 4.4
2019-Jun-10 18:30N 56°45' E 011°51'2 4.1
2019-Jun-10 18:00N 56°47' E 011°52'2 4.0
2019-Jun-10 17:30N 56°49' E 011°53'2 4.4
2019-Jun-10 17:00N 56°51' E 011°55'2 4.7
2019-Jun-10 16:30N 56°53' E 011°57'2 4.8
2019-Jun-10 16:01N 56°55' E 011°59'3 5.4
2019-Jun-10 15:29N 56°57' E 012°01'2 5.1
2019-Jun-10 15:00N 56°59' E 012°03'1 2.3
2019-Jun-10 14:30N 57°01' E 012°04'2 4.2
2019-Jun-10 14:00N 57°02' E 012°06'3 4.1
2019-Jun-10 13:23N 57°05' E 012°08'2 3.8
2019-Jun-10 12:52N 57°06' E 012°10'1 2.3
2019-Jun-10 12:25N 57°07' E 012°11'0 0.0
2019-Jun-10 11:58N 57°07' E 012°11'0 0.0
2019-Jun-10 11:25N 57°07' E 012°11'0 0.0
2019-Jun-10 10:58N 57°07' E 012°11'0 0.0
2019-Jun-10 10:25N 57°07' E 012°11'0 0.0
2019-Jun-10 09:58N 57°07' E 012°11'0 0.0
2019-Jun-10 09:28N 57°07' E 012°11'0 0.0
2019-Jun-10 08:58N 57°07' E 012°11'0 0.0
2019-Jun-10 06:46N 57°07' E 012°11'0 0.0
2019-Jun-10 06:10N 57°07' E 012°11'0 0.0
2019-Jun-10 05:46N 57°07' E 012°11'0 0.0
2019-Jun-10 05:28N 57°07' E 012°11'0 0.0
2019-Jun-10 03:22N 57°07' E 012°11'5 2.7
2019-Jun-10 01:20N 57°08' E 012°01'1 1.5
2019-Jun-10 01:00N 57°08' E 012°00'1 1.8
2019-Jun-10 00:29N 57°08' E 011°59'1 1.7
2019-Jun-10 00:00N 57°09' E 011°57'1 2.0
2019-Jun-09 23:29N 57°09' E 011°56'1 1.8
2019-Jun-09 23:00N 57°10' E 011°54'1 2.0
2019-Jun-09 22:30N 57°10' E 011°53'1 2.7
2019-Jun-09 22:00N 57°11' E 011°51'1 3.0
2019-Jun-09 21:30N 57°12' E 011°49'2 3.6
2019-Jun-09 21:00N 57°13' E 011°46'2 3.5
2019-Jun-09 20:30N 57°14' E 011°43'2 3.3
2019-Jun-09 20:00N 57°15' E 011°41'1 2.8
2019-Jun-09 19:30N 57°16' E 011°39'1 2.6
2019-Jun-09 19:00N 57°16' E 011°36'1 3.0
2019-Jun-09 18:30N 57°17' E 011°34'1 2.7
2019-Jun-09 18:00N 57°17' E 011°31'1 2.2
2019-Jun-09 17:30N 57°17' E 011°29'1 2.1
2019-Jun-09 17:00N 57°18' E 011°28'2 3.0
2019-Jun-09 16:30N 57°19' E 011°25'1 2.9
2019-Jun-09 16:00N 57°19' E 011°23'2 3.6
2019-Jun-09 15:30N 57°20' E 011°20'3 5.6
2019-Jun-09 15:00N 57°23' E 011°17'3 6.1
2019-Jun-09 14:30N 57°25' E 011°14'3 5.1
2019-Jun-09 14:00N 57°27' E 011°11'3 5.8
2019-Jun-09 13:31N 57°29' E 011°07'2 4.8
2019-Jun-09 13:01N 57°31' E 011°05'2 4.0
2019-Jun-09 12:30N 57°33' E 011°04'3 5.1
2019-Jun-09 12:01N 57°35' E 011°01'3 5.3
2019-Jun-09 11:30N 57°38' E 010°59'3 6.0
2019-Jun-09 11:00N 57°40' E 010°56'3 5.0
2019-Jun-09 10:31N 57°43' E 010°54'2 3.5
2019-Jun-09 10:00N 57°44' E 010°51'2 4.2
2019-Jun-09 09:30N 57°45' E 010°48'2 4.5
2019-Jun-09 09:00N 57°46' E 010°45'3 5.4
2019-Jun-09 08:30N 57°48' E 010°41'2 4.9
2019-Jun-09 08:00N 57°47' E 010°36'2 4.2
2019-Jun-09 07:30N 57°45' E 010°34'0 0.0
2019-Jun-09 06:38N 57°45' E 010°34'0 0.0
2019-Jun-09 06:05N 57°45' E 010°34'0 0.0
2019-Jun-09 05:59N 57°45' E 010°34'0 0.0
2019-Jun-09 05:17N 57°45' E 010°34'0 0.0
2019-Jun-09 04:59N 57°45' E 010°34'0 0.0
2019-Jun-09 03:53N 57°45' E 010°34'0 0.0
2019-Jun-09 03:14N 57°45' E 010°34'0 0.0
2019-Jun-09 02:56N 57°45' E 010°34'0 0.0
2019-Jun-09 02:14N 57°45' E 010°34'0 0.0
2019-Jun-09 01:35N 57°45' E 010°34'0 0.0
2019-Jun-09 01:05N 57°45' E 010°34'0 0.0
2019-Jun-08 21:19N 57°45' E 010°34'1 3.0
2019-Jun-08 20:59N 57°46' E 010°35'2 4.7
2019-Jun-08 20:31N 57°48' E 010°38'2 4.3
2019-Jun-08 20:01N 57°49' E 010°41'2 3.5
2019-Jun-08 19:30N 57°50' E 010°44'1 2.9
2019-Jun-08 19:01N 57°50' E 010°47'2 3.2
2019-Jun-08 18:31N 57°50' E 010°50'2 3.1
2019-Jun-08 18:01N 57°51' E 010°52'2 3.4
2019-Jun-08 17:30N 57°51' E 010°56'2 3.1
2019-Jun-08 17:01N 57°51' E 010°58'1 2.9
2019-Jun-08 16:31N 57°52' E 011°01'1 2.3
2019-Jun-08 16:00N 57°51' E 011°03'1 1.7
2019-Jun-08 15:30N 57°51' E 011°04'1 1.8
2019-Jun-08 15:00N 57°51' E 011°06'1 2.6
2019-Jun-08 14:31N 57°51' E 011°08'1 2.6
2019-Jun-08 14:01N 57°51' E 011°11'1 2.7
2019-Jun-08 13:30N 57°51' E 011°13'1 2.9
2019-Jun-08 13:00N 57°52' E 011°16'2 3.3
2019-Jun-08 12:31N 57°52' E 011°19'2 3.1
2019-Jun-08 12:00N 57°53' E 011°22'1 2.7
2019-Jun-08 11:30N 57°53' E 011°24'1 1.2
2019-Jun-08 11:01N 57°53' E 011°25'2 3.5
2019-Jun-08 10:30N 57°55' E 011°24'2 3.7
2019-Jun-08 10:01N 57°57' E 011°24'2 3.9
2019-Jun-08 09:30N 57°59' E 011°23'2 4.0
2019-Jun-08 09:00N 58°01' E 011°21'2 4.1
2019-Jun-08 08:30N 58°03' E 011°20'2 3.3
2019-Jun-08 08:00N 58°04' E 011°19'2 3.0
2019-Jun-08 07:30N 58°06' E 011°18'2 3.8
2019-Jun-08 07:00N 58°08' E 011°18'2 4.2
2019-Jun-08 06:31N 58°10' E 011°17'2 4.3
2019-Jun-08 05:59N 58°12' E 011°16'2 4.6
2019-Jun-08 05:30N 58°14' E 011°14'2 4.4
2019-Jun-08 05:00N 58°16' E 011°13'2 4.6
2019-Jun-08 04:30N 58°18' E 011°11'2 4.5
2019-Jun-08 04:00N 58°20' E 011°11'2 4.7
2019-Jun-08 03:30N 58°23' E 011°10'2 4.9
2019-Jun-08 03:00N 58°25' E 011°10'3 5.1
2019-Jun-08 02:30N 58°28' E 011°09'3 5.3
2019-Jun-08 02:00N 58°30' E 011°08'3 5.1
2019-Jun-08 01:30N 58°33' E 011°08'2 5.0
2019-Jun-08 01:01N 58°35' E 011°07'3 5.1
2019-Jun-08 00:30N 58°38' E 011°06'3 5.1
2019-Jun-08 00:01N 58°40' E 011°05'3 5.3
2019-Jun-07 23:30N 58°43' E 011°05'2 4.9
2019-Jun-07 23:01N 58°45' E 011°05'2 4.7
2019-Jun-07 22:31N 58°48' E 011°05'2 4.5
2019-Jun-07 22:00N 58°50' E 011°06'2 4.7
2019-Jun-07 21:30N 58°52' E 011°05'2 4.3
2019-Jun-07 21:01N 58°54' E 011°04'2 4.2
2019-Jun-07 20:31N 58°56' E 011°03'2 5.0
2019-Jun-07 20:01N 58°59' E 011°01'3 5.1
2019-Jun-07 19:31N 59°00' E 010°57'2 4.7
2019-Jun-07 19:01N 59°01' E 010°53'2 4.1
2019-Jun-07 18:31N 59°03' E 010°51'2 4.0
2019-Jun-07 18:01N 59°05' E 010°49'2 4.3
2019-Jun-07 17:31N 59°07' E 010°48'2 3.9
2019-Jun-07 17:00N 59°08' E 010°51'1 1.6
2019-Jun-07 16:30N 59°08' E 010°52'0 0.1
2019-Jun-07 15:59N 59°08' E 010°52'0 0.0
2019-Jun-07 15:29N 59°08' E 010°52'0 0.0
2019-Jun-07 14:59N 59°08' E 010°52'0 0.0
2019-Jun-07 14:29N 59°08' E 010°52'0 0.0
2019-Jun-07 13:59N 59°08' E 010°52'0 0.0
2019-Jun-07 13:29N 59°08' E 010°52'0 0.0
2019-Jun-07 12:59N 59°08' E 010°53'0 0.0
2019-Jun-07 12:29N 59°08' E 010°52'0 0.0
2019-Jun-07 11:59N 59°08' E 010°53'0 0.0
2019-Jun-07 11:29N 59°08' E 010°53'0 0.0
2019-Jun-07 10:59N 59°08' E 010°52'0 0.0
2019-Jun-07 10:29N 59°08' E 010°52'0 0.0
2019-Jun-07 09:59N 59°08' E 010°52'0 0.0
2019-Jun-07 09:29N 59°08' E 010°52'0 0.0
2019-Jun-07 08:59N 59°08' E 010°52'0 0.0
2019-Jun-07 08:29N 59°08' E 010°52'0 0.0
2019-Jun-07 07:59N 59°08' E 010°52'0 0.0
2019-Jun-07 07:29N 59°08' E 010°52'0 0.0
2019-Jun-07 06:59N 59°08' E 010°52'0 0.0
2019-Jun-07 06:29N 59°08' E 010°52'0 0.0
2019-Jun-07 05:59N 59°08' E 010°52'0 0.0
2019-Jun-07 05:29N 59°08' E 010°52'0 0.0
2019-Jun-07 04:59N 59°08' E 010°52'0 0.0
2019-Jun-07 04:29N 59°08' E 010°52'0 0.0
2019-Jun-07 03:59N 59°08' E 010°52'0 0.0
2019-Jun-07 03:29N 59°08' E 010°52'0 0.1
2019-Jun-07 02:59N 59°08' E 010°53'0 0.1
2019-Jun-07 02:29N 59°08' E 010°52'0 0.1
2019-Jun-07 01:59N 59°08' E 010°53'0 0.0
2019-Jun-07 01:29N 59°08' E 010°53'0 0.0
2019-Jun-07 00:59N 59°08' E 010°53'0 0.1
2019-Jun-07 00:29N 59°08' E 010°52'0 0.0
2019-Jun-06 23:59N 59°08' E 010°52'0 0.1
2019-Jun-06 23:29N 59°08' E 010°52'0 0.0
2019-Jun-06 22:59N 59°08' E 010°52'0 0.0
2019-Jun-06 22:29N 59°08' E 010°52'0 0.1
2019-Jun-06 21:59N 59°08' E 010°52'0 0.1
2019-Jun-06 21:29N 59°08' E 010°52'0 0.0
2019-Jun-06 20:59N 59°08' E 010°52'0 0.1
2019-Jun-06 20:29N 59°08' E 010°52'0 0.0
2019-Jun-06 19:59N 59°08' E 010°52'0 0.0
2019-Jun-06 19:29N 59°08' E 010°52'0 0.1
2019-Jun-06 18:59N 59°08' E 010°52'0 0.0
2019-Jun-06 18:29N 59°08' E 010°52'0 0.0
2019-Jun-06 17:59N 59°08' E 010°52'0 0.0
2019-Jun-06 17:29N 59°08' E 010°52'0 0.0
2019-Jun-06 16:59N 59°08' E 010°52'0 0.0
2019-Jun-06 16:29N 59°08' E 010°52'0 0.0
2019-Jun-06 15:59N 59°08' E 010°52'0 0.5
2019-Jun-06 15:31N 59°08' E 010°52'2 4.1
2019-Jun-06 15:01N 59°07' E 010°48'3 5.1
2019-Jun-06 14:31N 59°05' E 010°49'3 5.9
2019-Jun-06 14:01N 59°02' E 010°52'3 5.5
2019-Jun-06 13:31N 59°01' E 010°57'1 2.8
2019-Jun-06 13:00N 59°01' E 010°60'0 0.1
2019-Jun-06 12:28N 59°01' E 010°60'0 0.1
2019-Jun-06 11:58N 59°01' E 010°60'0 0.0
2019-Jun-06 11:28N 59°01' E 010°60'0 0.0
2019-Jun-06 10:58N 59°01' E 010°60'0 0.0
2019-Jun-06 10:28N 59°01' E 010°60'0 0.0
2019-Jun-06 09:58N 59°01' E 010°60'0 0.0
2019-Jun-06 09:28N 59°01' E 010°60'0 0.0
2019-Jun-06 08:58N 59°01' E 010°60'0 0.1
2019-Jun-06 08:28N 59°01' E 010°60'0 0.1
2019-Jun-06 07:58N 59°01' E 010°60'0 0.1
2019-Jun-06 07:28N 59°01' E 010°60'0 0.0
2019-Jun-06 06:58N 59°01' E 010°60'0 0.0
2019-Jun-06 06:28N 59°01' E 010°60'0 0.0
2019-Jun-06 05:58N 59°01' E 010°60'0 0.0
2019-Jun-06 05:28N 59°01' E 010°60'0 0.0
2019-Jun-06 04:58N 59°01' E 010°60'0 0.0
2019-Jun-06 04:28N 59°01' E 010°60'0 0.0
2019-Jun-06 03:58N 59°01' E 010°60'0 0.0
2019-Jun-06 03:28N 59°01' E 010°60'0 0.0
2019-Jun-06 02:58N 59°01' E 010°60'0 0.0
2019-Jun-06 02:28N 59°01' E 010°60'0 0.0
2019-Jun-06 01:58N 59°01' E 010°60'0 0.0
2019-Jun-06 01:28N 59°01' E 010°60'  
Track history (hours):
 
Tides and Currents Weather Stations Pressure Air Temp Water Temp Dewpoint Dewpoint Depression Visibility Wind Speed Wind Dir Waves Ship Positions

Thor Heyerdahl

Last reported at 2019-Jun-16 01:00 UTC. Time now 2019-Jun-16 01:05 UTC.
Position N 54°47' E 010°47'.

beam 6.5 m; draft 2.2 m.

Type: Sailing vessel. MMSI: 211232340.

Date/timePositionNaut miles runAvg speedWind from/ knotsBaromVisibWave heightAir tempDewpointWater temp
2019-Jun-16 01:00N 54°47' E 010°47'3 5.4
2019-Jun-16 00:30N 54°44' E 010°45'3 5.0
2019-Jun-16 00:00N 54°42' E 010°42'2 4.9
2019-Jun-15 23:30N 54°41' E 010°39'2 5.0
2019-Jun-15 23:01N 54°39' E 010°36'3 5.6
2019-Jun-15 22:30N 54°37' E 010°33'3 5.0
2019-Jun-15 22:00N 54°35' E 010°29'3 5.5
2019-Jun-15 21:30N 54°33' E 010°26'3 6.1
2019-Jun-15 21:00N 54°31' E 010°22'2 3.1
2019-Jun-15 20:30N 54°30' E 010°20'1 2.8
2019-Jun-15 20:01N 54°29' E 010°19'2 3.9
2019-Jun-15 19:30N 54°28' E 010°16'2 3.8
2019-Jun-15 19:00N 54°26' E 010°14'1 2.6
2019-Jun-15 18:29N 54°25' E 010°13'2 4.7
2019-Jun-15 18:00N 54°23' E 010°12'2 4.8
2019-Jun-15 17:30N 54°21' E 010°10'1 1.9
2019-Jun-15 16:53N 54°20' E 010°11'0 0.0
2019-Jun-15 16:23N 54°20' E 010°11'0 0.0
2019-Jun-15 15:53N 54°20' E 010°11'0 0.0
2019-Jun-15 15:23N 54°20' E 010°11'0 0.0
2019-Jun-15 14:53N 54°20' E 010°11'0 0.0
2019-Jun-15 14:23N 54°20' E 010°11'0 0.0
2019-Jun-15 13:56N 54°20' E 010°11'0 0.0
2019-Jun-15 13:26N 54°20' E 010°11'0 0.0
2019-Jun-15 12:56N 54°20' E 010°11'0 0.0
2019-Jun-15 12:26N 54°20' E 010°11'0 0.0
2019-Jun-15 11:55N 54°20' E 010°11'0 0.0
2019-Jun-15 11:13N 54°20' E 010°11'0 0.0
2019-Jun-15 10:58N 54°20' E 010°11'0 0.0
2019-Jun-15 10:28N 54°20' E 010°11'0 0.0
2019-Jun-15 09:55N 54°20' E 010°11'0 0.0
2019-Jun-15 09:28N 54°20' E 010°11'0 0.0
2019-Jun-15 08:46N 54°20' E 010°11'0 0.0
2019-Jun-15 08:29N 54°20' E 010°11'0 0.8
2019-Jun-15 08:01N 54°20' E 010°10'1 2.0
2019-Jun-15 07:31N 54°21' E 010°10'1 2.6
2019-Jun-15 06:56N 54°22' E 010°11'0 0.0
2019-Jun-15 06:23N 54°22' E 010°11'0 0.0
2019-Jun-15 05:56N 54°22' E 010°11'0 0.1
2019-Jun-15 05:29N 54°22' E 010°11'0 0.0
2019-Jun-15 04:59N 54°22' E 010°11'0 0.0
2019-Jun-15 04:29N 54°22' E 010°11'0 0.0
2019-Jun-15 03:59N 54°22' E 010°11'0 0.0
2019-Jun-15 03:29N 54°22' E 010°11'0 0.0
2019-Jun-15 02:59N 54°22' E 010°11'0 0.0
2019-Jun-15 02:29N 54°22' E 010°11'0 0.0
2019-Jun-15 01:59N 54°22' E 010°11'0 0.0
2019-Jun-15 01:29N 54°22' E 010°11'0 0.0
2019-Jun-15 00:59N 54°22' E 010°11'0 0.0
2019-Jun-15 00:17N 54°22' E 010°11'0 0.1
2019-Jun-14 23:59N 54°22' E 010°11'0 0.0
2019-Jun-14 23:29N 54°22' E 010°11'0 0.0
2019-Jun-14 22:58N 54°22' E 010°11'0 0.0
2019-Jun-14 22:20N 54°22' E 010°11'0 0.0
2019-Jun-14 21:49N 54°22' E 010°11'0 0.0
2019-Jun-14 21:23N 54°22' E 010°11'0 0.0
2019-Jun-14 20:52N 54°22' E 010°11'0 0.0
2019-Jun-14 20:23N 54°22' E 010°11'0 0.0
2019-Jun-14 19:53N 54°22' E 010°11'0 0.0
2019-Jun-14 19:23N 54°22' E 010°11'0 0.0
2019-Jun-14 18:53N 54°22' E 010°11'0 0.0
2019-Jun-14 18:27N 54°22' E 010°11'0 0.0
2019-Jun-14 17:59N 54°22' E 010°11'0 0.0
2019-Jun-14 17:25N 54°22' E 010°11'0 0.1
2019-Jun-14 17:00N 54°22' E 010°11'0 0.1
2019-Jun-14 16:29N 54°22' E 010°11'0 0.0
2019-Jun-14 15:59N 54°22' E 010°11'0 0.1
2019-Jun-14 15:29N 54°22' E 010°11'1 2.7
2019-Jun-14 14:59N 54°24' E 010°12'1 1.2
2019-Jun-14 14:30N 54°23' E 010°11'2 5.0
2019-Jun-14 14:01N 54°26' E 010°11'1 1.2
2019-Jun-14 13:29N 54°26' E 010°11'0 0.0
2019-Jun-14 13:00N 54°26' E 010°11'0 0.0
2019-Jun-14 12:30N 54°26' E 010°11'0 0.0
2019-Jun-14 11:59N 54°26' E 010°11'0 0.0
2019-Jun-14 11:30N 54°26' E 010°11'0 0.0
2019-Jun-14 11:00N 54°26' E 010°11'0 0.0
2019-Jun-14 10:29N 54°26' E 010°11'0 0.0
2019-Jun-14 09:51N 54°26' E 010°11'0 0.0
2019-Jun-14 09:29N 54°26' E 010°11'0 0.0
2019-Jun-14 08:54N 54°26' E 010°11'0 0.0
2019-Jun-14 08:30N 54°26' E 010°11'0 0.0
2019-Jun-14 07:54N 54°26' E 010°11'0 0.0
2019-Jun-14 07:30N 54°26' E 010°11'0 0.0
2019-Jun-14 06:57N 54°26' E 010°11'0 0.0
2019-Jun-14 06:30N 54°26' E 010°11'0 0.0
2019-Jun-14 05:59N 54°26' E 010°11'0 0.0
2019-Jun-14 05:26N 54°26' E 010°11'0 0.0
2019-Jun-14 05:00N 54°26' E 010°11'0 0.0
2019-Jun-14 04:30N 54°26' E 010°11'0 0.0
2019-Jun-14 04:00N 54°26' E 010°11'0 0.1
2019-Jun-14 03:30N 54°26' E 010°11'0 0.0
2019-Jun-14 03:00N 54°26' E 010°11'0 0.0
2019-Jun-14 02:30N 54°26' E 010°11'0 0.0
2019-Jun-14 01:59N 54°26' E 010°11'0 0.0
2019-Jun-14 01:30N 54°26' E 010°11'0 0.0
2019-Jun-14 01:00N 54°26' E 010°11'0 0.0
2019-Jun-14 00:29N 54°26' E 010°11'0 0.0
2019-Jun-14 00:00N 54°26' E 010°11'0 0.0
2019-Jun-13 23:30N 54°26' E 010°11'0 0.0
2019-Jun-13 23:00N 54°26' E 010°11'0 0.1
2019-Jun-13 22:30N 54°26' E 010°11'0 0.1
2019-Jun-13 22:00N 54°26' E 010°11'0 0.1
2019-Jun-13 21:24N 54°26' E 010°11'0 0.0
2019-Jun-13 21:00N 54°26' E 010°11'0 0.0
2019-Jun-13 20:30N 54°26' E 010°11'0 0.0
2019-Jun-13 19:51N 54°26' E 010°11'0 0.0
2019-Jun-13 19:21N 54°26' E 010°11'0 0.2
2019-Jun-13 19:00N 54°26' E 010°11'1 1.6
2019-Jun-13 18:30N 54°26' E 010°12'3 5.6
2019-Jun-13 18:00N 54°28' E 010°15'3 5.9
2019-Jun-13 17:30N 54°31' E 010°18'3 5.4
2019-Jun-13 17:00N 54°33' E 010°21'3 5.9
2019-Jun-13 16:30N 54°35' E 010°24'2 3.1
2019-Jun-13 16:00N 54°36' E 010°26'0 0.1
2019-Jun-13 15:30N 54°36' E 010°26'0 0.7
2019-Jun-13 15:00N 54°36' E 010°27'2 3.6
2019-Jun-13 14:30N 54°38' E 010°29'1 2.6
2019-Jun-13 14:00N 54°39' E 010°30'0 0.7
2019-Jun-13 13:30N 54°39' E 010°31'1 1.0
2019-Jun-13 13:00N 54°39' E 010°32'1 2.3
2019-Jun-13 12:30N 54°39' E 010°34'1 2.5
2019-Jun-13 12:00N 54°40' E 010°36'2 3.6
2019-Jun-13 11:30N 54°40' E 010°38'2 4.7
2019-Jun-13 11:00N 54°42' E 010°42'2 3.6
2019-Jun-13 10:30N 54°43' E 010°44'2 4.5
2019-Jun-13 10:00N 54°45' E 010°46'2 4.0
2019-Jun-13 09:31N 54°47' E 010°46'2 3.5
2019-Jun-13 09:00N 54°48' E 010°48'2 3.1
2019-Jun-13 08:30N 54°50' E 010°49'1 2.7
2019-Jun-13 08:00N 54°51' E 010°49'1 2.8
2019-Jun-13 07:31N 54°53' E 010°50'2 3.2
2019-Jun-13 07:00N 54°54' E 010°50'2 3.8
2019-Jun-13 06:30N 54°56' E 010°51'1 2.1
2019-Jun-13 05:58N 54°57' E 010°52'0 0.1
2019-Jun-13 05:28N 54°57' E 010°52'0 0.0
2019-Jun-13 04:58N 54°57' E 010°52'0 0.0
2019-Jun-13 04:28N 54°57' E 010°52'0 0.0
2019-Jun-13 03:55N 54°57' E 010°52'0 0.0
2019-Jun-13 03:28N 54°57' E 010°52'0 0.0
2019-Jun-13 02:58N 54°57' E 010°52'0 0.0
2019-Jun-13 02:28N 54°57' E 010°52'0 0.0
2019-Jun-13 01:58N 54°57' E 010°52'0 0.0
2019-Jun-13 01:28N 54°57' E 010°52'0 0.0
2019-Jun-13 00:58N 54°57' E 010°52'0 0.0
2019-Jun-13 00:28N 54°57' E 010°52'0 0.0
2019-Jun-12 23:58N 54°57' E 010°52'0 0.0
2019-Jun-12 23:28N 54°57' E 010°52'0 0.0
2019-Jun-12 22:58N 54°57' E 010°52'0 0.0
2019-Jun-12 22:28N 54°57' E 010°52'0 0.0
2019-Jun-12 21:55N 54°57' E 010°52'0 0.0
2019-Jun-12 21:28N 54°57' E 010°52'0 0.0
2019-Jun-12 20:58N 54°57' E 010°52'0 0.0
2019-Jun-12 20:28N 54°57' E 010°52'0 0.2
2019-Jun-12 20:00N 54°57' E 010°52'1 2.7
2019-Jun-12 19:31N 54°58' E 010°53'1 1.8
2019-Jun-12 19:01N 54°59' E 010°54'1 2.0
2019-Jun-12 18:30N 54°59' E 010°56'1 2.6
2019-Jun-12 18:01N 55°00' E 010°57'1 2.9
2019-Jun-12 17:31N 55°01' E 010°58'1 1.3
2019-Jun-12 17:00N 55°02' E 010°59'1 1.6
2019-Jun-12 16:30N 55°02' E 011°01'1 1.6
2019-Jun-12 16:00N 55°03' E 011°01'1 1.6
2019-Jun-12 15:30N 55°04' E 011°01'1 1.4
2019-Jun-12 15:01N 55°04' E 011°02'1 1.9
2019-Jun-12 14:27N 55°05' E 011°02'1 2.4
2019-Jun-12 14:00N 55°06' E 011°02'3 3.1
2019-Jun-12 13:01N 55°09' E 011°03'0 3.5
2019-Jun-12 13:00N 55°09' E 011°03'3 3.2
2019-Jun-12 12:04N 55°12' E 011°05'0 4.0
2019-Jun-12 12:00N 55°12' E 011°05'1 2.0
2019-Jun-12 11:30N 55°13' E 011°05'1 2.9
2019-Jun-12 11:00N 55°14' E 011°03'1 2.3
2019-Jun-12 10:30N 55°15' E 011°01'3 3.3
2019-Jun-12 09:38N 55°16' E 010°57'1 0.8
2019-Jun-12 09:02N 55°17' E 010°57'2 1.7
2019-Jun-12 07:55N 55°18' E 010°60'0 1.2
2019-Jun-12 07:30N 55°18' E 011°00'1 1.5
2019-Jun-12 06:59N 55°19' E 011°01'1 2.2
2019-Jun-12 06:25N 55°20' E 011°01'1 2.2
2019-Jun-12 05:47N 55°21' E 011°02'1 1.9
2019-Jun-12 05:28N 55°22' E 011°02'2 2.7
2019-Jun-12 04:52N 55°23' E 010°60'7 3.9
2019-Jun-12 03:08N 55°29' E 010°54'0 2.6
2019-Jun-12 03:00N 55°29' E 010°53'3 2.7
2019-Jun-12 02:01N 55°31' E 010°50'2 2.6
2019-Jun-12 01:22N 55°31' E 010°47'0 0.0
2019-Jun-12 00:55N 55°31' E 010°47'0 0.0
2019-Jun-11 23:19N 55°32' E 010°47'0 0.0
2019-Jun-11 22:55N 55°32' E 010°47'0 0.0
2019-Jun-11 17:37N 55°32' E 010°47'10 2.3
2019-Jun-11 13:31N 55°41' E 010°46'0 5.3
2019-Jun-11 13:27N 55°41' E 010°46'17 3.0
2019-Jun-11 07:48N 55°57' E 010°58'11 4.7
2019-Jun-11 05:25N 56°06' E 011°08'2 4.8
2019-Jun-11 05:00N 56°08' E 011°10'2 4.5
2019-Jun-11 04:30N 56°10' E 011°13'2 4.7
2019-Jun-11 03:59N 56°12' E 011°15'3 5.5
2019-Jun-11 03:30N 56°14' E 011°17'3 5.4
2019-Jun-11 03:00N 56°16' E 011°20'2 4.9
2019-Jun-11 02:31N 56°18' E 011°23'3 5.6
2019-Jun-11 02:00N 56°21' E 011°25'2 4.9
2019-Jun-11 01:30N 56°23' E 011°28'2 4.2
2019-Jun-11 01:00N 56°25' E 011°29'2 3.7
2019-Jun-11 00:30N 56°26' E 011°31'2 3.4
2019-Jun-10 23:58N 56°28' E 011°32'2 3.8
2019-Jun-10 23:29N 56°30' E 011°33'2 3.4
2019-Jun-10 23:00N 56°31' E 011°34'2 3.2
2019-Jun-10 22:30N 56°32' E 011°37'2 3.0
2019-Jun-10 22:00N 56°33' E 011°39'2 3.3
2019-Jun-10 21:30N 56°34' E 011°40'2 3.3
2019-Jun-10 20:59N 56°36' E 011°42'1 3.2
2019-Jun-10 20:30N 56°37' E 011°43'2 3.8
2019-Jun-10 20:00N 56°39' E 011°44'2 4.5
2019-Jun-10 19:30N 56°41' E 011°47'2 4.6
2019-Jun-10 19:00N 56°43' E 011°49'2 4.4
2019-Jun-10 18:30N 56°45' E 011°51'2 4.1
2019-Jun-10 18:00N 56°47' E 011°52'2 4.0
2019-Jun-10 17:30N 56°49' E 011°53'2 4.4
2019-Jun-10 17:00N 56°51' E 011°55'2 4.7
2019-Jun-10 16:30N 56°53' E 011°57'2 4.8
2019-Jun-10 16:01N 56°55' E 011°59'3 5.4
2019-Jun-10 15:29N 56°57' E 012°01'2 5.1
2019-Jun-10 15:00N 56°59' E 012°03'1 2.3
2019-Jun-10 14:30N 57°01' E 012°04'2 4.2
2019-Jun-10 14:00N 57°02' E 012°06'3 4.1
2019-Jun-10 13:23N 57°05' E 012°08'2 3.8
2019-Jun-10 12:52N 57°06' E 012°10'1 2.3
2019-Jun-10 12:25N 57°07' E 012°11'0 0.0
2019-Jun-10 11:58N 57°07' E 012°11'0 0.0
2019-Jun-10 11:25N 57°07' E 012°11'0 0.0
2019-Jun-10 10:58N 57°07' E 012°11'0 0.0
2019-Jun-10 10:25N 57°07' E 012°11'0 0.0
2019-Jun-10 09:58N 57°07' E 012°11'0 0.0
2019-Jun-10 09:28N 57°07' E 012°11'0 0.0
2019-Jun-10 08:58N 57°07' E 012°11'0 0.0
2019-Jun-10 06:46N 57°07' E 012°11'0 0.0
2019-Jun-10 06:10N 57°07' E 012°11'0 0.0
2019-Jun-10 05:46N 57°07' E 012°11'0 0.0
2019-Jun-10 05:28N 57°07' E 012°11'0 0.0
2019-Jun-10 03:22N 57°07' E 012°11'5 2.7
2019-Jun-10 01:20N 57°08' E 012°01'1 1.5
2019-Jun-10 01:00N 57°08' E 012°00'1 1.8
2019-Jun-10 00:29N 57°08' E 011°59'1 1.7
2019-Jun-10 00:00N 57°09' E 011°57'1 2.0
2019-Jun-09 23:29N 57°09' E 011°56'1 1.8
2019-Jun-09 23:00N 57°10' E 011°54'1 2.0
2019-Jun-09 22:30N 57°10' E 011°53'1 2.7
2019-Jun-09 22:00N 57°11' E 011°51'1 3.0
2019-Jun-09 21:30N 57°12' E 011°49'2 3.6
2019-Jun-09 21:00N 57°13' E 011°46'2 3.5
2019-Jun-09 20:30N 57°14' E 011°43'2 3.3
2019-Jun-09 20:00N 57°15' E 011°41'1 2.8
2019-Jun-09 19:30N 57°16' E 011°39'1 2.6
2019-Jun-09 19:00N 57°16' E 011°36'1 3.0
2019-Jun-09 18:30N 57°17' E 011°34'1 2.7
2019-Jun-09 18:00N 57°17' E 011°31'1 2.2
2019-Jun-09 17:30N 57°17' E 011°29'1 2.1
2019-Jun-09 17:00N 57°18' E 011°28'2 3.0
2019-Jun-09 16:30N 57°19' E 011°25'1 2.9
2019-Jun-09 16:00N 57°19' E 011°23'2 3.6
2019-Jun-09 15:30N 57°20' E 011°20'3 5.6
2019-Jun-09 15:00N 57°23' E 011°17'3 6.1
2019-Jun-09 14:30N 57°25' E 011°14'3 5.1
2019-Jun-09 14:00N 57°27' E 011°11'3 5.8
2019-Jun-09 13:31N 57°29' E 011°07'2 4.8
2019-Jun-09 13:01N 57°31' E 011°05'2 4.0
2019-Jun-09 12:30N 57°33' E 011°04'3 5.1
2019-Jun-09 12:01N 57°35' E 011°01'3 5.3
2019-Jun-09 11:30N 57°38' E 010°59'3 6.0
2019-Jun-09 11:00N 57°40' E 010°56'3 5.0
2019-Jun-09 10:31N 57°43' E 010°54'2 3.5
2019-Jun-09 10:00N 57°44' E 010°51'2 4.2
2019-Jun-09 09:30N 57°45' E 010°48'2 4.5
2019-Jun-09 09:00N 57°46' E 010°45'3 5.4
2019-Jun-09 08:30N 57°48' E 010°41'2 4.9
2019-Jun-09 08:00N 57°47' E 010°36'2 4.2
2019-Jun-09 07:30N 57°45' E 010°34'0 0.0
2019-Jun-09 06:38N 57°45' E 010°34'0 0.0
2019-Jun-09 06:05N 57°45' E 010°34'0 0.0
2019-Jun-09 05:59N 57°45' E 010°34'0 0.0
2019-Jun-09 05:17N 57°45' E 010°34'0 0.0
2019-Jun-09 04:59N 57°45' E 010°34'0 0.0
2019-Jun-09 03:53N 57°45' E 010°34'0 0.0
2019-Jun-09 03:14N 57°45' E 010°34'0 0.0
2019-Jun-09 02:56N 57°45' E 010°34'0 0.0
2019-Jun-09 02:14N 57°45' E 010°34'0 0.0
2019-Jun-09 01:35N 57°45' E 010°34'0 0.0
2019-Jun-09 01:05N 57°45' E 010°34'0 0.0
2019-Jun-08 21:19N 57°45' E 010°34'1 3.0
2019-Jun-08 20:59N 57°46' E 010°35'2 4.7
2019-Jun-08 20:31N 57°48' E 010°38'2 4.3
2019-Jun-08 20:01N 57°49' E 010°41'2 3.5
2019-Jun-08 19:30N 57°50' E 010°44'1 2.9
2019-Jun-08 19:01N 57°50' E 010°47'2 3.2
2019-Jun-08 18:31N 57°50' E 010°50'2 3.1
2019-Jun-08 18:01N 57°51' E 010°52'2 3.4
2019-Jun-08 17:30N 57°51' E 010°56'2 3.1
2019-Jun-08 17:01N 57°51' E 010°58'1 2.9
2019-Jun-08 16:31N 57°52' E 011°01'1 2.3
2019-Jun-08 16:00N 57°51' E 011°03'1 1.7
2019-Jun-08 15:30N 57°51' E 011°04'1 1.8
2019-Jun-08 15:00N 57°51' E 011°06'1 2.6
2019-Jun-08 14:31N 57°51' E 011°08'1 2.6
2019-Jun-08 14:01N 57°51' E 011°11'1 2.7
2019-Jun-08 13:30N 57°51' E 011°13'1 2.9
2019-Jun-08 13:00N 57°52' E 011°16'2 3.3
2019-Jun-08 12:31N 57°52' E 011°19'2 3.1
2019-Jun-08 12:00N 57°53' E 011°22'1 2.7
2019-Jun-08 11:30N 57°53' E 011°24'1 1.2
2019-Jun-08 11:01N 57°53' E 011°25'2 3.5
2019-Jun-08 10:30N 57°55' E 011°24'2 3.7
2019-Jun-08 10:01N 57°57' E 011°24'2 3.9
2019-Jun-08 09:30N 57°59' E 011°23'2 4.0
2019-Jun-08 09:00N 58°01' E 011°21'2 4.1
2019-Jun-08 08:30N 58°03' E 011°20'2 3.3
2019-Jun-08 08:00N 58°04' E 011°19'2 3.0
2019-Jun-08 07:30N 58°06' E 011°18'2 3.8
2019-Jun-08 07:00N 58°08' E 011°18'2 4.2
2019-Jun-08 06:31N 58°10' E 011°17'2 4.3
2019-Jun-08 05:59N 58°12' E 011°16'2 4.6
2019-Jun-08 05:30N 58°14' E 011°14'2 4.4
2019-Jun-08 05:00N 58°16' E 011°13'2 4.6
2019-Jun-08 04:30N 58°18' E 011°11'2 4.5
2019-Jun-08 04:00N 58°20' E 011°11'2 4.7
2019-Jun-08 03:30N 58°23' E 011°10'2 4.9
2019-Jun-08 03:00N 58°25' E 011°10'3 5.1
2019-Jun-08 02:30N 58°28' E 011°09'3 5.3
2019-Jun-08 02:00N 58°30' E 011°08'3 5.1
2019-Jun-08 01:30N 58°33' E 011°08'2 5.0
2019-Jun-08 01:01N 58°35' E 011°07'3 5.1
2019-Jun-08 00:30N 58°38' E 011°06'3 5.1
2019-Jun-08 00:01N 58°40' E 011°05'3 5.3
2019-Jun-07 23:30N 58°43' E 011°05'2 4.9
2019-Jun-07 23:01N 58°45' E 011°05'2 4.7
2019-Jun-07 22:31N 58°48' E 011°05'2 4.5
2019-Jun-07 22:00N 58°50' E 011°06'2 4.7
2019-Jun-07 21:30N 58°52' E 011°05'2 4.3
2019-Jun-07 21:01N 58°54' E 011°04'2 4.2
2019-Jun-07 20:31N 58°56' E 011°03'2 5.0
2019-Jun-07 20:01N 58°59' E 011°01'3 5.1
2019-Jun-07 19:31N 59°00' E 010°57'2 4.7
2019-Jun-07 19:01N 59°01' E 010°53'2 4.1
2019-Jun-07 18:31N 59°03' E 010°51'2 4.0
2019-Jun-07 18:01N 59°05' E 010°49'2 4.3
2019-Jun-07 17:31N 59°07' E 010°48'2 3.9
2019-Jun-07 17:00N 59°08' E 010°51'1 1.6
2019-Jun-07 16:30N 59°08' E 010°52'0 0.1
2019-Jun-07 15:59N 59°08' E 010°52'0 0.0
2019-Jun-07 15:29N 59°08' E 010°52'0 0.0
2019-Jun-07 14:59N 59°08' E 010°52'0 0.0
2019-Jun-07 14:29N 59°08' E 010°52'0 0.0
2019-Jun-07 13:59N 59°08' E 010°52'0 0.0
2019-Jun-07 13:29N 59°08' E 010°52'0 0.0
2019-Jun-07 12:59N 59°08' E 010°53'0 0.0
2019-Jun-07 12:29N 59°08' E 010°52'0 0.0
2019-Jun-07 11:59N 59°08' E 010°53'0 0.0
2019-Jun-07 11:29N 59°08' E 010°53'0 0.0
2019-Jun-07 10:59N 59°08' E 010°52'0 0.0
2019-Jun-07 10:29N 59°08' E 010°52'0 0.0
2019-Jun-07 09:59N 59°08' E 010°52'0 0.0
2019-Jun-07 09:29N 59°08' E 010°52'0 0.0
2019-Jun-07 08:59N 59°08' E 010°52'0 0.0
2019-Jun-07 08:29N 59°08' E 010°52'0 0.0
2019-Jun-07 07:59N 59°08' E 010°52'0 0.0
2019-Jun-07 07:29N 59°08' E 010°52'0 0.0
2019-Jun-07 06:59N 59°08' E 010°52'0 0.0
2019-Jun-07 06:29N 59°08' E 010°52'0 0.0
2019-Jun-07 05:59N 59°08' E 010°52'0 0.0
2019-Jun-07 05:29N 59°08' E 010°52'0 0.0
2019-Jun-07 04:59N 59°08' E 010°52'0 0.0
2019-Jun-07 04:29N 59°08' E 010°52'0 0.0
2019-Jun-07 03:59N 59°08' E 010°52'0 0.0
2019-Jun-07 03:29N 59°08' E 010°52'0 0.1
2019-Jun-07 02:59N 59°08' E 010°53'0 0.1
2019-Jun-07 02:29N 59°08' E 010°52'0 0.1
2019-Jun-07 01:59N 59°08' E 010°53'0 0.0
2019-Jun-07 01:29N 59°08' E 010°53'0 0.0
2019-Jun-07 00:59N 59°08' E 010°53'0 0.1
2019-Jun-07 00:29N 59°08' E 010°52'0 0.0
2019-Jun-06 23:59N 59°08' E 010°52'0 0.1
2019-Jun-06 23:29N 59°08' E 010°52'0 0.0
2019-Jun-06 22:59N 59°08' E 010°52'0 0.0
2019-Jun-06 22:29N 59°08' E 010°52'0 0.1
2019-Jun-06 21:59N 59°08' E 010°52'0 0.1
2019-Jun-06 21:29N 59°08' E 010°52'0 0.0
2019-Jun-06 20:59N 59°08' E 010°52'0 0.1
2019-Jun-06 20:29N 59°08' E 010°52'0 0.0
2019-Jun-06 19:59N 59°08' E 010°52'0 0.0
2019-Jun-06 19:29N 59°08' E 010°52'0 0.1
2019-Jun-06 18:59N 59°08' E 010°52'0 0.0
2019-Jun-06 18:29N 59°08' E 010°52'0 0.0
2019-Jun-06 17:59N 59°08' E 010°52'0 0.0
2019-Jun-06 17:29N 59°08' E 010°52'0 0.0
2019-Jun-06 16:59N 59°08' E 010°52'0 0.0
2019-Jun-06 16:29N 59°08' E 010°52'0 0.0
2019-Jun-06 15:59N 59°08' E 010°52'0 0.5
2019-Jun-06 15:31N 59°08' E 010°52'2 4.1
2019-Jun-06 15:01N 59°07' E 010°48'3 5.1
2019-Jun-06 14:31N 59°05' E 010°49'3 5.9
2019-Jun-06 14:01N 59°02' E 010°52'3 5.5
2019-Jun-06 13:31N 59°01' E 010°57'1 2.8
2019-Jun-06 13:00N 59°01' E 010°60'0 0.1
2019-Jun-06 12:28N 59°01' E 010°60'0 0.1
2019-Jun-06 11:58N 59°01' E 010°60'0 0.0
2019-Jun-06 11:28N 59°01' E 010°60'0 0.0
2019-Jun-06 10:58N 59°01' E 010°60'0 0.0
2019-Jun-06 10:28N 59°01' E 010°60'0 0.0
2019-Jun-06 09:58N 59°01' E 010°60'0 0.0
2019-Jun-06 09:28N 59°01' E 010°60'0 0.0
2019-Jun-06 08:58N 59°01' E 010°60'0 0.1
2019-Jun-06 08:28N 59°01' E 010°60'0 0.1
2019-Jun-06 07:58N 59°01' E 010°60'0 0.1
2019-Jun-06 07:28N 59°01' E 010°60'0 0.0
2019-Jun-06 06:58N 59°01' E 010°60'0 0.0
2019-Jun-06 06:28N 59°01' E 010°60'0 0.0
2019-Jun-06 05:58N 59°01' E 010°60'0 0.0
2019-Jun-06 05:28N 59°01' E 010°60'0 0.0
2019-Jun-06 04:58N 59°01' E 010°60'0 0.0
2019-Jun-06 04:28N 59°01' E 010°60'0 0.0
2019-Jun-06 03:58N 59°01' E 010°60'0 0.0
2019-Jun-06 03:28N 59°01' E 010°60'0 0.0
2019-Jun-06 02:58N 59°01' E 010°60'0 0.0
2019-Jun-06 02:28N 59°01' E 010°60'0 0.0
2019-Jun-06 01:58N 59°01' E 010°60'0 0.0
2019-Jun-06 01:28N 59°01' E 010°60'  

Dump ship's entire track history